createdAt,value
2022-08-17T00:00:34.337Z,5.50
2022-08-17T00:03:04.228Z,5.60
2022-08-17T00:05:36.808Z,5.60
2022-08-17T00:08:05.707Z,5.40
2022-08-17T00:10:33.773Z,5.30
2022-08-17T00:13:06.962Z,5.30
2022-08-17T00:15:36.245Z,5.88
2022-08-17T00:18:04.162Z,5.90
2022-08-17T00:20:52.054Z,5.97
2022-08-17T00:23:20.175Z,5.45
2022-08-17T00:25:48.944Z,5.43
2022-08-17T00:28:18.123Z,5.45
2022-08-17T00:30:53.688Z,5.38
2022-08-17T00:33:25.566Z,5.65
2022-08-17T00:35:54.194Z,6.00
2022-08-17T00:38:22.210Z,5.78
2022-08-17T00:40:52.290Z,5.82
2022-08-17T00:43:29.973Z,5.70
2022-08-17T00:46:00.561Z,5.78
2022-08-17T00:48:30.787Z,5.68
2022-08-17T00:51:06.556Z,5.90
2022-08-17T00:53:38.680Z,5.78
2022-08-17T00:56:11.882Z,5.82
2022-08-17T00:58:40.259Z,5.88
2022-08-17T01:01:11.452Z,5.78
2022-08-17T01:03:41.900Z,5.85
2022-08-17T01:06:10.184Z,6.05
2022-08-17T01:08:40.011Z,5.82
2022-08-17T01:11:09.229Z,6.20
2022-08-17T01:13:41.438Z,5.85
2022-08-17T01:16:17.285Z,6.15
2022-08-17T01:18:46.840Z,6.15
2022-08-17T01:21:23.368Z,5.55
2022-08-17T01:23:52.698Z,5.70
2022-08-17T01:26:21.283Z,5.85
2022-08-17T01:28:53.683Z,5.82
2022-08-17T01:31:25.520Z,5.80
2022-08-17T01:33:53.740Z,5.97
2022-08-17T01:36:22.505Z,6.90
2022-08-17T01:38:50.395Z,6.13
2022-08-17T01:41:22.341Z,6.10
2022-08-17T01:43:55.103Z,6.07
2022-08-17T01:46:28.009Z,6.10
2022-08-17T01:48:57.592Z,6.25
2022-08-17T01:51:27.351Z,5.85
2022-08-17T01:53:59.341Z,5.72
2022-08-17T01:56:31.146Z,5.47
2022-08-17T01:58:59.301Z,6.40
2022-08-17T02:01:30.508Z,5.80
2022-08-17T02:04:01.344Z,5.80
2022-08-17T02:06:45.034Z,6.05
2022-08-17T02:09:17.021Z,5.60
2022-08-17T02:11:47.291Z,5.43
2022-08-17T02:14:15.342Z,6.38
2022-08-17T02:16:43.553Z,5.85
2022-08-17T02:19:15.745Z,5.80
2022-08-17T02:21:45.697Z,6.30
2022-08-17T02:25:01.018Z,6.00
2022-08-17T02:27:08.376Z,6.20
2022-08-17T02:29:36.264Z,6.20
2022-08-17T02:32:05.032Z,6.20
2022-08-17T02:34:33.330Z,6.13
2022-08-17T02:37:01.254Z,5.93
2022-08-17T02:39:29.234Z,6.07
2022-08-17T02:42:02.601Z,5.95
2022-08-17T02:44:39.962Z,6.18
2022-08-17T02:47:10.462Z,6.20
2022-08-17T02:49:39.037Z,5.82
2022-08-17T02:52:08.610Z,5.47
2022-08-17T02:54:40.776Z,6.28
2022-08-17T02:57:10.930Z,6.20
2022-08-17T02:59:43.313Z,6.00
2022-08-17T03:02:16.273Z,6.07
2022-08-17T03:04:44.128Z,6.20
2022-08-17T03:07:12.034Z,6.20
2022-08-17T03:09:39.871Z,5.63
2022-08-17T03:12:10.097Z,6.22
2022-08-17T03:14:41.426Z,6.57
2022-08-17T03:17:17.149Z,6.28
2022-08-17T03:19:45.502Z,6.13
2022-08-17T03:22:35.688Z,5.78
2022-08-17T03:25:01.318Z,6.07
2022-08-17T03:27:30.079Z,5.97
2022-08-17T03:29:57.895Z,6.10
2022-08-17T03:32:27.102Z,6.00
2022-08-17T03:34:59.502Z,6.15
2022-08-17T03:37:27.560Z,6.40
2022-08-17T03:39:55.617Z,6.68
2022-08-17T03:42:31.390Z,6.60
2022-08-17T03:45:00.763Z,7.13
2022-08-17T03:47:47.756Z,6.93
2022-08-17T03:50:33.424Z,6.95
2022-08-17T03:53:19.057Z,6.97
2022-08-17T03:56:04.274Z,7.13
2022-08-17T03:58:32.130Z,6.50
2022-08-17T04:01:01.381Z,6.65
2022-08-17T04:03:30.569Z,6.90
2022-08-17T04:05:58.418Z,6.70
2022-08-17T04:08:26.252Z,6.60
2022-08-17T04:10:54.062Z,6.60
2022-08-17T04:13:24.073Z,6.90
2022-08-17T04:15:53.055Z,6.50
2022-08-17T04:18:21.308Z,6.60
2022-08-17T04:20:50.606Z,6.68
2022-08-17T04:23:20.074Z,6.70
2022-08-17T04:25:50.115Z,6.40
2022-08-17T04:28:19.017Z,7.00
2022-08-17T04:30:48.329Z,6.47
2022-08-17T04:33:19.043Z,6.45
2022-08-17T04:35:51.033Z,6.50
2022-08-17T04:38:20.830Z,6.55
2022-08-17T04:41:06.619Z,6.90
2022-08-17T04:43:35.579Z,6.80
2022-08-17T04:46:05.946Z,7.05
2022-08-17T04:48:37.584Z,6.95
2022-08-17T04:51:10.536Z,6.90
2022-08-17T04:53:39.908Z,6.55
2022-08-17T04:56:11.524Z,6.40
2022-08-17T04:58:39.836Z,6.60
2022-08-17T05:01:08.741Z,6.80
2022-08-17T05:03:36.779Z,7.30
2022-08-17T05:06:04.938Z,7.25
2022-08-17T05:08:34.208Z,7.22
2022-08-17T05:11:02.129Z,7.18
2022-08-17T05:13:30.713Z,6.85
2022-08-17T05:16:02.256Z,6.85
2022-08-17T05:18:31.162Z,7.13
2022-08-17T05:20:59.148Z,7.60
2022-08-17T05:23:31.985Z,7.38
2022-08-17T05:26:21.970Z,7.05
2022-08-17T05:28:55.324Z,7.50
2022-08-17T05:31:25.238Z,7.15
2022-08-17T05:33:53.353Z,7.78
2022-08-17T05:36:43.021Z,7.18
2022-08-17T05:39:15.868Z,7.30
2022-08-17T05:41:48.676Z,7.90
2022-08-17T05:44:17.386Z,7.80
2022-08-17T05:46:49.231Z,7.95
2022-08-17T05:49:20.243Z,7.80
2022-08-17T05:52:10.808Z,7.63
2022-08-17T05:54:52.204Z,7.90
2022-08-17T05:57:36.738Z,7.40
2022-08-17T06:00:20.144Z,7.72
2022-08-17T06:03:05.715Z,7.70
2022-08-17T06:05:55.068Z,7.20
2022-08-17T06:08:33.241Z,7.60
2022-08-17T06:11:11.463Z,7.70
2022-08-17T06:13:52.012Z,8.80
2022-08-17T06:16:33.438Z,8.07
2022-08-17T06:21:36.077Z,7.90
2022-08-17T06:24:09.257Z,8.73
2022-08-17T06:26:43.238Z,7.85
2022-08-17T06:29:27.019Z,7.93
2022-08-17T06:31:55.022Z,8.02
2022-08-17T06:34:22.939Z,7.82
2022-08-17T06:36:59.222Z,8.85
2022-08-17T06:39:42.860Z,8.13
2022-08-17T06:43:02.205Z,7.80
2022-08-17T06:45:18.760Z,7.32
2022-08-17T06:47:51.576Z,7.45
2022-08-17T06:50:23.940Z,7.85
2022-08-17T06:52:57.923Z,7.45
2022-08-17T06:55:34.477Z,8.00
2022-08-17T06:58:15.947Z,8.00
2022-08-17T07:00:48.707Z,8.35
2022-08-17T07:03:27.594Z,7.80
2022-08-17T07:06:00.260Z,7.57
2022-08-17T07:08:34.993Z,8.40
2022-08-17T07:11:06.379Z,7.60
2022-08-17T07:13:43.787Z,8.52
2022-08-17T07:16:26.055Z,9.30
2022-08-17T07:18:55.743Z,8.68
2022-08-17T07:21:38.500Z,8.43
2022-08-17T07:27:14.573Z,7.72
2022-08-17T07:29:46.674Z,7.80
2022-08-17T07:32:20.099Z,7.90
2022-08-17T07:35:11.822Z,7.50
2022-08-17T07:37:41.624Z,7.75
2022-08-17T07:40:20.560Z,7.40
2022-08-17T07:43:03.296Z,7.00
2022-08-17T07:45:51.952Z,6.90
2022-08-17T07:48:23.759Z,7.60
2022-08-17T07:50:53.207Z,7.85
2022-08-17T07:53:24.234Z,8.38
2022-08-17T07:55:53.533Z,7.90
2022-08-17T07:58:24.533Z,8.80
2022-08-17T08:01:09.038Z,8.50
2022-08-17T08:03:44.839Z,8.10
2022-08-17T08:06:22.276Z,7.70
2022-08-17T08:08:54.873Z,8.15
2022-08-17T08:11:33.533Z,8.75
2022-08-17T08:14:29.513Z,8.35
2022-08-17T08:17:00.187Z,8.40
2022-08-17T08:19:31.543Z,8.05
2022-08-17T08:22:05.568Z,8.63
2022-08-17T08:24:56.398Z,9.10
2022-08-17T08:27:35.732Z,8.25
2022-08-17T08:30:08.706Z,8.60
2022-08-17T08:32:50.589Z,8.85
2022-08-17T08:35:28.110Z,9.82
2022-08-17T08:38:20.033Z,8.82
2022-08-17T08:40:58.522Z,8.90
2022-08-17T08:43:37.180Z,8.65
2022-08-17T08:46:15.652Z,8.88
2022-08-17T08:51:55.580Z,8.88
2022-08-17T08:54:36.779Z,9.68
2022-08-17T08:57:26.753Z,9.68
2022-08-17T09:00:08.737Z,9.10
2022-08-17T09:03:10.131Z,9.02
2022-08-17T09:05:58.295Z,8.98
2022-08-17T09:08:38.448Z,8.75
2022-08-17T09:11:10.749Z,8.77
2022-08-17T09:13:46.289Z,9.18
2022-08-17T09:16:29.785Z,8.52
2022-08-17T09:19:05.433Z,8.48
2022-08-17T09:21:47.940Z,8.82
2022-08-17T09:24:24.094Z,8.57
2022-08-17T09:26:58.703Z,8.80
2022-08-17T09:29:29.448Z,9.40
2022-08-17T09:31:59.682Z,9.20
2022-08-17T09:34:35.097Z,8.68
2022-08-17T09:37:16.830Z,8.75
2022-08-17T09:39:52.502Z,8.82
2022-08-17T09:42:26.716Z,9.00
2022-08-17T09:45:04.745Z,8.52
2022-08-17T09:47:40.600Z,8.27
2022-08-17T09:50:14.684Z,8.38
2022-08-17T09:52:44.178Z,8.43
2022-08-17T09:55:13.327Z,7.70
2022-08-17T09:58:07.398Z,7.55
2022-08-17T10:00:38.228Z,7.45
2022-08-17T10:03:28.289Z,8.20
2022-08-17T10:06:06.500Z,8.07
2022-08-17T10:08:43.180Z,7.28
2022-08-17T10:11:50.447Z,7.60
2022-08-17T10:14:36.899Z,7.20
2022-08-17T10:19:51.858Z,7.07
2022-08-17T10:22:45.663Z,7.78
2022-08-17T10:25:54.251Z,8.40
2022-08-17T10:28:30.272Z,7.85
2022-08-17T10:31:33.750Z,7.93
2022-08-17T10:34:02.471Z,7.30
2022-08-17T10:36:46.178Z,6.82
2022-08-17T10:39:25.513Z,7.10
2022-08-17T10:41:58.774Z,7.38
2022-08-17T10:44:41.434Z,7.30
2022-08-17T10:47:12.711Z,7.70
2022-08-17T10:49:47.443Z,7.57
2022-08-17T10:52:49.985Z,8.00
2022-08-17T10:55:20.469Z,7.45
2022-08-17T10:57:50.674Z,7.25
2022-08-17T11:01:03.852Z,7.40
2022-08-17T11:03:33.260Z,6.95
2022-08-17T11:06:09.552Z,6.55
2022-08-17T11:09:12.814Z,6.50
2022-08-17T11:11:52.730Z,6.50
2022-08-17T11:14:48.406Z,7.13
2022-08-17T11:17:33.858Z,7.03
2022-08-17T11:20:34.359Z,6.43
2022-08-17T11:23:35.124Z,6.72
2022-08-17T11:26:18.621Z,6.57
2022-08-17T11:28:52.864Z,5.93
2022-08-17T11:31:38.323Z,6.20
2022-08-17T11:34:15.153Z,5.93
2022-08-17T11:37:18.113Z,6.60
2022-08-17T11:40:06.537Z,5.90
2022-08-17T11:42:52.165Z,5.40
2022-08-17T11:45:37.881Z,4.93
2022-08-17T11:48:33.355Z,5.05
2022-08-17T11:51:30.291Z,4.63
2022-08-17T11:57:02.240Z,4.45
2022-08-17T11:59:57.718Z,4.40
2022-08-17T12:02:47.514Z,4.28
2022-08-17T12:05:34.067Z,4.75
2022-08-17T12:08:19.570Z,4.85
2022-08-17T12:11:01.580Z,4.57
2022-08-17T12:13:39.700Z,4.47
2022-08-17T12:16:09.996Z,4.55
2022-08-17T12:18:39.479Z,4.35
2022-08-17T12:21:28.761Z,4.50
2022-08-17T12:24:00.785Z,4.55
2022-08-17T12:26:32.620Z,4.35
2022-08-17T12:29:05.794Z,4.43
2022-08-17T12:31:44.258Z,4.43
2022-08-17T12:34:17.860Z,4.55
2022-08-17T12:36:46.491Z,4.43
2022-08-17T12:39:21.404Z,5.13
2022-08-17T12:41:52.245Z,5.20
2022-08-17T12:44:23.215Z,4.60
2022-08-17T12:46:54.549Z,4.70
2022-08-17T12:49:29.977Z,4.57
2022-08-17T12:52:05.758Z,4.55
2022-08-17T12:54:46.684Z,5.15
2022-08-17T12:57:17.098Z,4.65
2022-08-17T12:59:51.529Z,4.72
2022-08-17T13:02:28.333Z,4.85
2022-08-17T13:04:57.859Z,4.32
2022-08-17T13:07:36.191Z,4.47
2022-08-17T13:10:05.431Z,4.60
2022-08-17T13:12:35.811Z,4.53
2022-08-17T13:15:05.774Z,4.38
2022-08-17T13:17:37.289Z,4.75
2022-08-17T13:20:14.522Z,4.70
2022-08-17T13:22:44.379Z,4.78
2022-08-17T13:25:17.535Z,4.57
2022-08-17T13:27:53.590Z,4.10
2022-08-17T13:30:28.159Z,4.50
2022-08-17T13:32:57.968Z,5.00
2022-08-17T13:35:40.978Z,4.60
2022-08-17T13:38:10.822Z,4.43
2022-08-17T13:40:50.368Z,4.20
2022-08-17T13:43:45.629Z,4.38
2022-08-17T13:46:20.337Z,4.60
2022-08-17T13:48:58.889Z,4.35
2022-08-17T13:51:33.696Z,4.60
2022-08-17T13:54:20.081Z,4.53
2022-08-17T13:56:55.433Z,4.63
2022-08-17T13:59:36.435Z,4.82
2022-08-17T14:02:22.855Z,4.55
2022-08-17T14:04:55.352Z,4.25
2022-08-17T14:07:33.831Z,4.20
2022-08-17T14:10:04.143Z,4.13
2022-08-17T14:12:34.119Z,4.40
2022-08-17T14:15:02.341Z,4.10
2022-08-17T14:17:37.951Z,4.07
2022-08-17T14:20:09.371Z,3.70
2022-08-17T14:22:39.895Z,4.13
2022-08-17T14:25:10.619Z,4.30
2022-08-17T14:27:51.980Z,4.40
2022-08-17T14:30:23.341Z,4.07
2022-08-17T14:32:53.087Z,4.40
2022-08-17T14:35:23.282Z,4.18
2022-08-17T14:37:51.780Z,4.10
2022-08-17T14:40:24.558Z,4.13
2022-08-17T14:42:54.271Z,4.25
2022-08-17T14:45:32.415Z,4.20
2022-08-17T14:48:05.682Z,4.13
2022-08-17T14:50:35.739Z,4.13
2022-08-17T14:53:05.476Z,4.60
2022-08-17T14:55:33.803Z,4.55
2022-08-17T14:58:02.004Z,4.00
2022-08-17T15:00:29.910Z,3.60
2022-08-17T15:03:00.238Z,4.00
2022-08-17T15:05:31.980Z,4.05
2022-08-17T15:08:00.866Z,4.15
2022-08-17T15:10:29.876Z,3.65
2022-08-17T15:12:58.235Z,3.85
2022-08-17T15:15:26.330Z,3.88
2022-08-17T15:17:54.206Z,3.60
2022-08-17T15:20:24.780Z,4.15
2022-08-17T15:22:55.044Z,3.53
2022-08-17T15:25:23.683Z,4.00
2022-08-17T15:27:51.983Z,4.05
2022-08-17T15:30:20.676Z,3.67
2022-08-17T15:32:54.719Z,4.00
2022-08-17T15:35:27.395Z,4.22
2022-08-17T15:38:04.527Z,4.00
2022-08-17T15:40:34.972Z,3.80
2022-08-17T15:43:06.629Z,3.70
2022-08-17T15:45:35.321Z,4.20
2022-08-17T15:48:03.472Z,3.83
2022-08-17T15:50:31.383Z,4.35
2022-08-17T15:53:01.941Z,3.97
2022-08-17T15:55:31.671Z,3.58
2022-08-17T15:57:59.606Z,3.75
2022-08-17T16:00:28.521Z,5.45
2022-08-17T16:03:15.178Z,4.00
2022-08-17T16:05:45.342Z,4.00
2022-08-17T16:08:20.630Z,4.05
2022-08-17T16:10:49.553Z,4.07
2022-08-17T16:13:18.248Z,4.20
2022-08-17T16:15:53.076Z,4.40
2022-08-17T16:18:28.310Z,3.92
2022-08-17T16:20:56.332Z,4.10
2022-08-17T16:23:25.559Z,4.10
2022-08-17T16:25:54.408Z,4.00
2022-08-17T16:28:23.256Z,4.15
2022-08-17T16:31:04.028Z,4.20
2022-08-17T16:33:32.507Z,4.35
2022-08-17T16:36:01.057Z,4.93
2022-08-17T16:38:30.281Z,4.28
2022-08-17T16:40:58.110Z,4.65
2022-08-17T16:43:25.927Z,4.70
2022-08-17T16:45:53.786Z,4.53
2022-08-17T16:48:21.574Z,4.68
2022-08-17T16:51:03.101Z,4.47
2022-08-17T16:53:33.570Z,4.72
2022-08-17T16:56:01.370Z,4.57
2022-08-17T16:58:30.159Z,4.75
2022-08-17T17:00:59.401Z,4.55
2022-08-17T17:03:30.173Z,4.82
2022-08-17T17:06:08.091Z,4.13
2022-08-17T17:08:44.558Z,4.63
2022-08-17T17:11:16.166Z,4.60
2022-08-17T17:13:48.461Z,4.72
2022-08-17T17:16:21.664Z,4.50
2022-08-17T17:19:03.276Z,4.80
2022-08-17T17:21:42.505Z,4.20
2022-08-17T17:24:17.927Z,4.63
2022-08-17T17:27:07.325Z,4.45
2022-08-17T17:29:47.842Z,5.20
2022-08-17T17:32:21.877Z,5.90
2022-08-17T17:34:55.885Z,7.07
2022-08-17T17:37:33.390Z,5.00
2022-08-17T17:40:07.508Z,5.30
2022-08-17T17:42:35.589Z,4.55
2022-08-17T17:45:11.557Z,5.00
2022-08-17T17:47:39.397Z,4.90
2022-08-17T17:50:08.895Z,5.20
2022-08-17T17:52:47.499Z,4.80
2022-08-17T17:55:40.993Z,5.15
2022-08-17T17:58:23.442Z,4.90
2022-08-17T18:01:01.927Z,4.55
2022-08-17T18:03:53.906Z,5.22
2022-08-17T18:06:30.299Z,4.80
2022-08-17T18:09:08.714Z,4.60
2022-08-17T18:11:58.941Z,4.90
2022-08-17T18:14:47.423Z,4.75
2022-08-17T18:17:15.362Z,4.75
2022-08-17T18:19:43.115Z,5.07
2022-08-17T18:22:14.863Z,4.90
2022-08-17T18:24:45.256Z,5.25
2022-08-17T18:27:25.140Z,5.10
2022-08-17T18:29:55.170Z,4.72
2022-08-17T18:32:33.069Z,4.82
2022-08-17T18:35:28.261Z,4.68
2022-08-17T18:37:58.161Z,4.75
2022-08-17T18:40:34.281Z,4.82
2022-08-17T18:43:28.285Z,4.97
2022-08-17T18:46:28.362Z,4.57
2022-08-17T18:49:00.278Z,4.97
2022-08-17T18:51:40.584Z,5.30
2022-08-17T18:56:52.306Z,5.00
2022-08-17T18:59:38.747Z,4.97
2022-08-17T19:02:34.613Z,4.72
2022-08-17T19:05:13.278Z,5.20
2022-08-17T19:07:43.379Z,5.38
2022-08-17T19:10:25.016Z,5.68
2022-08-17T19:13:00.767Z,5.90
2022-08-17T19:15:35.515Z,5.45
2022-08-17T19:18:09.910Z,5.45
2022-08-17T19:20:46.575Z,5.88
2022-08-17T19:23:21.267Z,6.15
2022-08-17T19:25:52.678Z,5.80
2022-08-17T19:28:25.785Z,5.22
2022-08-17T19:30:59.369Z,5.65
2022-08-17T19:33:27.907Z,6.18
2022-08-17T19:36:06.502Z,6.05
2022-08-17T19:38:43.346Z,6.30
2022-08-17T19:41:20.678Z,5.70
2022-08-17T19:44:08.729Z,5.70
2022-08-17T19:46:49.811Z,6.00
2022-08-17T19:49:34.513Z,5.85
2022-08-17T19:52:24.100Z,6.00
2022-08-17T19:57:42.400Z,5.55
2022-08-17T20:00:13.458Z,5.20
2022-08-17T20:02:51.126Z,6.32
2022-08-17T20:05:23.171Z,5.63
2022-08-17T20:07:59.261Z,5.70
2022-08-17T20:10:39.311Z,6.35
2022-08-17T20:13:10.963Z,5.25
2022-08-17T20:15:42.264Z,5.55
2022-08-17T20:18:19.354Z,5.60
2022-08-17T20:20:54.729Z,5.55
2022-08-17T20:23:32.346Z,5.53
2022-08-17T20:26:10.489Z,5.38
2022-08-17T20:28:39.978Z,4.90
2022-08-17T20:31:37.453Z,5.28
2022-08-17T20:37:04.735Z,5.15
2022-08-17T20:39:40.009Z,5.22
2022-08-17T20:42:30.502Z,5.25
2022-08-17T20:45:02.211Z,5.20
2022-08-17T20:47:33.478Z,5.03
2022-08-17T20:50:05.813Z,5.32
2022-08-17T20:55:53.462Z,5.25
2022-08-17T20:58:49.689Z,5.20
2022-08-17T21:01:34.969Z,5.30
2022-08-17T21:04:08.140Z,5.68
2022-08-17T21:06:56.020Z,5.80
2022-08-17T21:09:30.896Z,5.57
2022-08-17T21:12:04.515Z,5.18
2022-08-17T21:14:59.625Z,5.25
2022-08-17T21:17:51.383Z,5.47
2022-08-17T21:20:32.483Z,5.33
2022-08-17T21:23:27.498Z,5.00
2022-08-17T21:26:30.615Z,5.18
2022-08-17T21:29:30.322Z,5.25
2022-08-17T21:32:24.170Z,4.80
2022-08-17T21:35:28.857Z,5.15
2022-08-17T21:38:05.475Z,5.68
2022-08-17T21:40:35.024Z,5.57
2022-08-17T21:43:18.346Z,5.20
2022-08-17T21:45:56.209Z,5.20
2022-08-17T21:48:27.145Z,5.00
2022-08-17T21:51:02.870Z,5.60
2022-08-17T21:53:38.813Z,4.93
2022-08-17T21:56:08.038Z,5.03
2022-08-17T21:58:41.044Z,5.20
2022-08-17T22:01:24.778Z,5.18
2022-08-17T22:04:03.213Z,5.10
2022-08-17T22:06:35.931Z,5.38
2022-08-17T22:09:11.470Z,4.93
2022-08-17T22:11:52.539Z,5.18
2022-08-17T22:14:23.567Z,5.22
2022-08-17T22:17:10.694Z,5.50
2022-08-17T22:19:40.623Z,5.03
2022-08-17T22:22:11.991Z,5.20
2022-08-17T22:24:38.822Z,5.82
2022-08-17T22:27:13.012Z,5.40
2022-08-17T22:29:57.653Z,5.75
2022-08-17T22:32:37.551Z,5.30
2022-08-17T22:35:29.768Z,5.18
2022-08-17T22:37:58.916Z,5.38
2022-08-17T22:40:30.493Z,5.32
2022-08-17T22:43:00.107Z,5.85
2022-08-17T22:45:31.203Z,5.55
2022-08-17T22:48:02.037Z,5.65
2022-08-17T22:50:33.148Z,6.20
2022-08-17T22:53:21.332Z,6.05
2022-08-17T22:56:09.195Z,6.07
2022-08-17T22:59:01.848Z,6.20
2022-08-17T23:01:34.777Z,6.15
2022-08-17T23:04:05.784Z,5.95
2022-08-17T23:06:35.627Z,5.90
2022-08-17T23:09:05.760Z,6.43
2022-08-17T23:11:49.837Z,6.05
2022-08-17T23:14:20.206Z,6.55
2022-08-17T23:16:50.937Z,6.35
2022-08-17T23:19:21.084Z,6.72
2022-08-17T23:21:53.756Z,6.70
2022-08-17T23:24:26.429Z,6.45
2022-08-17T23:26:57.094Z,6.68
2022-08-17T23:29:25.040Z,7.07
2022-08-17T23:31:55.112Z,6.53
2022-08-17T23:34:24.206Z,6.78
2022-08-17T23:36:53.119Z,6.88
2022-08-17T23:39:27.359Z,7.00
2022-08-17T23:41:58.676Z,6.93
2022-08-17T23:44:27.368Z,6.65
2022-08-17T23:46:56.680Z,5.82
2022-08-17T23:49:25.113Z,6.03
2022-08-17T23:51:53.623Z,5.75
2022-08-17T23:54:25.028Z,5.60
2022-08-17T23:56:52.880Z,5.72
2022-08-17T23:59:23.487Z,5.47
